sensor_id;sensor_type;location;lat;lon;timestamp;P1;durP1;ratioP1;P2;durP2;ratioP2
3873;SDS011;1952;50.872;6.692;2022-10-03T00:31:21;11.47;;;4.40;;
3873;SDS011;1952;50.872;6.692;2022-10-03T00:33:56;6.27;;;3.50;;
3873;SDS011;1952;50.872;6.692;2022-10-03T00:36:40;10.93;;;5.77;;
3873;SDS011;1952;50.872;6.692;2022-10-03T00:39:33;10.90;;;5.13;;
3873;SDS011;1952;50.872;6.692;2022-10-03T00:48:40;11.57;;;6.07;;
3873;SDS011;1952;50.872;6.692;2022-10-03T00:51:24;12.90;;;6.00;;
3873;SDS011;1952;50.872;6.692;2022-10-03T00:54:07;19.00;;;6.03;;
3873;SDS011;1952;50.872;6.692;2022-10-03T00:56:48;8.73;;;5.73;;
3873;SDS011;1952;50.872;6.692;2022-10-03T00:59:30;15.47;;;5.40;;
3873;SDS011;1952;50.872;6.692;2022-10-03T01:02:20;13.10;;;6.10;;
3873;SDS011;1952;50.872;6.692;2022-10-03T01:05:05;11.27;;;6.10;;
3873;SDS011;1952;50.872;6.692;2022-10-03T01:07:54;10.10;;;5.97;;
3873;SDS011;1952;50.872;6.692;2022-10-03T01:10:39;8.93;;;5.47;;
3873;SDS011;1952;50.872;6.692;2022-10-03T01:13:21;13.73;;;5.63;;
3873;SDS011;1952;50.872;6.692;2022-10-03T01:15:59;15.47;;;5.73;;
3873;SDS011;1952;50.872;6.692;2022-10-03T01:18:39;16.00;;;5.97;;
3873;SDS011;1952;50.872;6.692;2022-10-03T01:21:27;9.73;;;5.40;;
3873;SDS011;1952;50.872;6.692;2022-10-03T01:24:12;12.50;;;5.13;;
3873;SDS011;1952;50.872;6.692;2022-10-03T01:27:07;9.77;;;5.40;;
3873;SDS011;1952;50.872;6.692;2022-10-03T01:29:46;7.40;;;5.47;;
3873;SDS011;1952;50.872;6.692;2022-10-03T01:32:38;10.07;;;5.50;;
3873;SDS011;1952;50.872;6.692;2022-10-03T01:35:13;7.03;;;4.60;;
3873;SDS011;1952;50.872;6.692;2022-10-03T01:37:52;10.07;;;6.03;;
3873;SDS011;1952;50.872;6.692;2022-10-03T01:40:34;10.13;;;5.70;;
3873;SDS011;1952;50.872;6.692;2022-10-03T01:43:13;10.07;;;5.20;;
3873;SDS011;1952;50.872;6.692;2022-10-03T01:46:03;9.70;;;5.60;;
3873;SDS011;1952;50.872;6.692;2022-10-03T01:48:42;11.20;;;5.40;;
3873;SDS011;1952;50.872;6.692;2022-10-03T01:51:18;6.27;;;5.00;;
3873;SDS011;1952;50.872;6.692;2022-10-03T01:53:56;7.83;;;6.00;;
3873;SDS011;1952;50.872;6.692;2022-10-03T01:56:51;10.87;;;5.17;;
3873;SDS011;1952;50.872;6.692;2022-10-03T01:59:31;8.57;;;5.90;;
3873;SDS011;1952;50.872;6.692;2022-10-03T02:02:11;9.80;;;5.20;;
3873;SDS011;1952;50.872;6.692;2022-10-03T02:04:49;8.37;;;5.50;;
3873;SDS011;1952;50.872;6.692;2022-10-03T02:07:29;7.93;;;4.80;;
3873;SDS011;1952;50.872;6.692;2022-10-03T02:10:17;10.73;;;4.97;;
3873;SDS011;1952;50.872;6.692;2022-10-03T02:12:53;9.07;;;5.63;;
3873;SDS011;1952;50.872;6.692;2022-10-03T02:15:29;5.40;;;4.90;;
3873;SDS011;1952;50.872;6.692;2022-10-03T02:18:08;7.93;;;5.30;;
3873;SDS011;1952;50.872;6.692;2022-10-03T02:20:42;7.90;;;4.80;;
3873;SDS011;1952;50.872;6.692;2022-10-03T02:23:25;8.90;;;5.80;;
3873;SDS011;1952;50.872;6.692;2022-10-03T02:26:16;8.53;;;4.67;;
3873;SDS011;1952;50.872;6.692;2022-10-03T02:29:17;7.43;;;5.17;;
3873;SDS011;1952;50.872;6.692;2022-10-03T02:32:14;6.40;;;4.73;;
3873;SDS011;1952;50.872;6.692;2022-10-03T02:41:37;6.67;;;4.63;;
3873;SDS011;1952;50.872;6.692;2022-10-03T02:54:27;8.03;;;4.57;;
3873;SDS011;1952;50.872;6.692;2022-10-03T03:00:47;5.10;;;4.60;;
3873;SDS011;1952;50.872;6.692;2022-10-03T03:03:39;6.40;;;4.27;;
3873;SDS011;1952;50.872;6.692;2022-10-03T03:09:24;13.70;;;4.53;;
3873;SDS011;1952;50.872;6.692;2022-10-03T03:18:32;12.50;;;5.20;;
3873;SDS011;1952;50.872;6.692;2022-10-03T03:21:12;5.67;;;5.03;;
3873;SDS011;1952;50.872;6.692;2022-10-03T03:24:00;6.40;;;5.67;;
3873;SDS011;1952;50.872;6.692;2022-10-03T03:27:01;8.13;;;5.20;;
3873;SDS011;1952;50.872;6.692;2022-10-03T03:29:49;9.37;;;6.63;;
3873;SDS011;1952;50.872;6.692;2022-10-03T03:32:27;5.97;;;5.37;;
3873;SDS011;1952;50.872;6.692;2022-10-03T03:35:06;11.10;;;6.00;;
3873;SDS011;1952;50.872;6.692;2022-10-03T03:37:45;8.17;;;5.33;;
3873;SDS011;1952;50.872;6.692;2022-10-03T03:40:27;6.83;;;5.70;;
3873;SDS011;1952;50.872;6.692;2022-10-03T03:43:15;10.50;;;5.70;;
3873;SDS011;1952;50.872;6.692;2022-10-03T03:46:07;14.50;;;5.60;;
3873;SDS011;1952;50.872;6.692;2022-10-03T03:48:49;7.80;;;5.30;;
3873;SDS011;1952;50.872;6.692;2022-10-03T03:51:41;6.93;;;6.23;;
3873;SDS011;1952;50.872;6.692;2022-10-03T03:54:32;7.40;;;5.23;;
3873;SDS011;1952;50.872;6.692;2022-10-03T03:57:20;6.03;;;4.20;;
3873;SDS011;1952;50.872;6.692;2022-10-03T04:00:06;14.03;;;5.83;;
3873;SDS011;1952;50.872;6.692;2022-10-03T04:02:54;10.80;;;4.90;;
3873;SDS011;1952;50.872;6.692;2022-10-03T04:05:40;8.37;;;5.10;;
3873;SDS011;1952;50.872;6.692;2022-10-03T04:08:23;9.87;;;5.87;;
3873;SDS011;1952;50.872;6.692;2022-10-03T04:11:03;15.10;;;6.13;;
3873;SDS011;1952;50.872;6.692;2022-10-03T04:13:51;10.70;;;5.93;;
3873;SDS011;1952;50.872;6.692;2022-10-03T04:16:55;11.33;;;5.73;;
3873;SDS011;1952;50.872;6.692;2022-10-03T04:20:07;20.40;;;6.77;;
3873;SDS011;1952;50.872;6.692;2022-10-03T04:22:48;14.93;;;7.43;;
3873;SDS011;1952;50.872;6.692;2022-10-03T04:25:29;12.50;;;6.60;;
3873;SDS011;1952;50.872;6.692;2022-10-03T04:31:11;11.47;;;6.40;;
3873;SDS011;1952;50.872;6.692;2022-10-03T04:33:52;6.17;;;5.40;;
3873;SDS011;1952;50.872;6.692;2022-10-03T04:36:43;8.37;;;6.30;;
3873;SDS011;1952;50.872;6.692;2022-10-03T04:39:15;11.90;;;6.20;;
3873;SDS011;1952;50.872;6.692;2022-10-03T04:41:53;9.10;;;5.67;;
3873;SDS011;1952;50.872;6.692;2022-10-03T04:44:35;8.47;;;6.00;;
3873;SDS011;1952;50.872;6.692;2022-10-03T04:47:22;13.23;;;6.10;;
3873;SDS011;1952;50.872;6.692;2022-10-03T04:49:55;10.37;;;5.97;;
3873;SDS011;1952;50.872;6.692;2022-10-03T04:52:37;6.73;;;5.23;;
3873;SDS011;1952;50.872;6.692;2022-10-03T04:55:14;12.23;;;5.57;;
3873;SDS011;1952;50.872;6.692;2022-10-03T04:57:57;12.37;;;6.27;;
3873;SDS011;1952;50.872;6.692;2022-10-03T05:00:32;8.10;;;5.90;;
3873;SDS011;1952;50.872;6.692;2022-10-03T05:03:11;10.00;;;5.77;;
3873;SDS011;1952;50.872;6.692;2022-10-03T05:05:50;10.80;;;6.10;;
3873;SDS011;1952;50.872;6.692;2022-10-03T05:08:26;9.63;;;6.40;;
3873;SDS011;1952;50.872;6.692;2022-10-03T05:11:10;11.47;;;6.40;;
3873;SDS011;1952;50.872;6.692;2022-10-03T05:13:52;6.73;;;6.07;;
3873;SDS011;1952;50.872;6.692;2022-10-03T05:16:28;11.23;;;6.83;;
3873;SDS011;1952;50.872;6.692;2022-10-03T05:19:18;10.43;;;5.70;;
3873;SDS011;1952;50.872;6.692;2022-10-03T05:22:07;10.03;;;6.90;;
3873;SDS011;1952;50.872;6.692;2022-10-03T05:24:52;9.33;;;6.13;;
3873;SDS011;1952;50.872;6.692;2022-10-03T05:27:35;8.60;;;6.23;;
3873;SDS011;1952;50.872;6.692;2022-10-03T05:30:14;10.43;;;5.37;;
3873;SDS011;1952;50.872;6.692;2022-10-03T05:32:49;10.63;;;6.30;;
3873;SDS011;1952;50.872;6.692;2022-10-03T05:35:24;8.40;;;5.67;;
3873;SDS011;1952;50.872;6.692;2022-10-03T05:41:20;10.20;;;7.77;;
3873;SDS011;1952;50.872;6.692;2022-10-03T05:43:55;11.60;;;6.30;;
3873;SDS011;1952;50.872;6.692;2022-10-03T05:46:40;10.90;;;7.27;;
3873;SDS011;1952;50.872;6.692;2022-10-03T05:49:37;11.50;;;6.83;;
3873;SDS011;1952;50.872;6.692;2022-10-03T05:52:30;11.17;;;7.47;;
3873;SDS011;1952;50.872;6.692;2022-10-03T06:36:41;13.40;;;8.10;;
3873;SDS011;1952;50.872;6.692;2022-10-03T06:42:55;10.13;;;8.17;;
3873;SDS011;1952;50.872;6.692;2022-10-03T06:45:54;8.07;;;7.00;;
3873;SDS011;1952;50.872;6.692;2022-10-03T06:49:14;9.93;;;7.33;;
3873;SDS011;1952;50.872;6.692;2022-10-03T06:52:26;9.40;;;7.50;;
3873;SDS011;1952;50.872;6.692;2022-10-03T06:58:23;12.47;;;8.00;;
3873;SDS011;1952;50.872;6.692;2022-10-03T07:01:27;7.90;;;7.10;;
3873;SDS011;1952;50.872;6.692;2022-10-03T07:07:19;8.20;;;6.60;;
3873;SDS011;1952;50.872;6.692;2022-10-03T07:10:14;7.47;;;6.40;;
3873;SDS011;1952;50.872;6.692;2022-10-03T07:13:08;9.27;;;7.60;;
3873;SDS011;1952;50.872;6.692;2022-10-03T07:16:01;8.60;;;7.80;;
3873;SDS011;1952;50.872;6.692;2022-10-03T07:19:12;12.90;;;8.07;;
3873;SDS011;1952;50.872;6.692;2022-10-03T07:22:08;8.90;;;7.90;;
3873;SDS011;1952;50.872;6.692;2022-10-03T07:25:23;10.00;;;7.13;;
3873;SDS011;1952;50.872;6.692;2022-10-03T07:31:32;7.77;;;6.57;;
3873;SDS011;1952;50.872;6.692;2022-10-03T07:37:12;9.90;;;6.83;;
3873;SDS011;1952;50.872;6.692;2022-10-03T07:40:19;9.00;;;6.63;;
3873;SDS011;1952;50.872;6.692;2022-10-03T07:54:53;9.90;;;7.50;;
3873;SDS011;1952;50.872;6.692;2022-10-03T08:00:52;7.37;;;6.10;;
3873;SDS011;1952;50.872;6.692;2022-10-03T08:03:45;10.33;;;5.83;;
3873;SDS011;1952;50.872;6.692;2022-10-03T08:06:22;8.77;;;6.77;;
3873;SDS011;1952;50.872;6.692;2022-10-03T08:15:00;7.93;;;5.50;;
3873;SDS011;1952;50.872;6.692;2022-10-03T08:17:40;7.93;;;5.80;;
3873;SDS011;1952;50.872;6.692;2022-10-03T08:20:21;7.20;;;5.10;;
3873;SDS011;1952;50.872;6.692;2022-10-03T08:23:03;7.90;;;5.50;;
3873;SDS011;1952;50.872;6.692;2022-10-03T08:25:39;6.60;;;4.77;;
3873;SDS011;1952;50.872;6.692;2022-10-03T08:31:49;7.83;;;6.00;;
3873;SDS011;1952;50.872;6.692;2022-10-03T08:34:57;7.93;;;5.10;;
3873;SDS011;1952;50.872;6.692;2022-10-03T08:37:42;5.43;;;4.90;;
3873;SDS011;1952;50.872;6.692;2022-10-03T08:46:00;7.07;;;5.50;;
3873;SDS011;1952;50.872;6.692;2022-10-03T08:48:45;7.80;;;5.87;;
3873;SDS011;1952;50.872;6.692;2022-10-03T08:51:31;7.17;;;5.80;;
3873;SDS011;1952;50.872;6.692;2022-10-03T08:57:30;8.63;;;6.67;;
3873;SDS011;1952;50.872;6.692;2022-10-03T09:00:03;8.80;;;6.10;;
3873;SDS011;1952;50.872;6.692;2022-10-03T09:03:14;11.47;;;6.60;;
3873;SDS011;1952;50.872;6.692;2022-10-03T09:10:14;9.27;;;7.53;;
3873;SDS011;1952;50.872;6.692;2022-10-03T09:19:19;10.80;;;6.70;;
3873;SDS011;1952;50.872;6.692;2022-10-03T09:26:24;9.77;;;6.57;;
3873;SDS011;1952;50.872;6.692;2022-10-03T09:29:24;10.40;;;5.43;;
3873;SDS011;1952;50.872;6.692;2022-10-03T09:35:39;8.00;;;6.83;;
3873;SDS011;1952;50.872;6.692;2022-10-03T09:38:56;7.33;;;5.17;;
3873;SDS011;1952;50.872;6.692;2022-10-03T09:41:51;9.33;;;6.43;;
3873;SDS011;1952;50.872;6.692;2022-10-03T09:47:45;8.87;;;5.70;;
3873;SDS011;1952;50.872;6.692;2022-10-03T09:50:48;10.60;;;5.00;;
3873;SDS011;1952;50.872;6.692;2022-10-03T09:57:03;7.47;;;6.07;;
3873;SDS011;1952;50.872;6.692;2022-10-03T09:59:54;9.70;;;4.27;;
3873;SDS011;1952;50.872;6.692;2022-10-03T10:05:54;9.63;;;5.00;;
3873;SDS011;1952;50.872;6.692;2022-10-03T10:08:50;5.50;;;3.87;;
3873;SDS011;1952;50.872;6.692;2022-10-03T10:11:51;9.13;;;4.10;;
3873;SDS011;1952;50.872;6.692;2022-10-03T10:15:15;5.50;;;4.00;;
3873;SDS011;1952;50.872;6.692;2022-10-03T10:18:32;11.13;;;3.90;;
3873;SDS011;1952;50.872;6.692;2022-10-03T10:21:32;4.53;;;3.30;;
3873;SDS011;1952;50.872;6.692;2022-10-03T10:27:25;5.97;;;2.40;;
3873;SDS011;1952;50.872;6.692;2022-10-03T10:40:29;7.23;;;2.90;;
3873;SDS011;1952;50.872;6.692;2022-10-03T10:56:22;4.27;;;2.50;;
3873;SDS011;1952;50.872;6.692;2022-10-03T11:02:13;3.70;;;2.47;;
3873;SDS011;1952;50.872;6.692;2022-10-03T11:05:05;4.17;;;2.40;;
3873;SDS011;1952;50.872;6.692;2022-10-03T11:14:11;4.60;;;2.20;;
3873;SDS011;1952;50.872;6.692;2022-10-03T11:17:19;3.70;;;2.13;;
3873;SDS011;1952;50.872;6.692;2022-10-03T11:20:20;4.37;;;2.30;;
3873;SDS011;1952;50.872;6.692;2022-10-03T11:23:34;5.43;;;2.63;;
3873;SDS011;1952;50.872;6.692;2022-10-03T11:27:08;3.73;;;2.07;;
3873;SDS011;1952;50.872;6.692;2022-10-03T11:33:58;2.97;;;1.93;;
3873;SDS011;1952;50.872;6.692;2022-10-03T11:37:05;2.73;;;2.07;;
3873;SDS011;1952;50.872;6.692;2022-10-03T11:40:24;2.93;;;2.20;;
3873;SDS011;1952;50.872;6.692;2022-10-03T11:49:47;5.97;;;2.20;;
3873;SDS011;1952;50.872;6.692;2022-10-03T11:52:52;6.07;;;2.83;;
3873;SDS011;1952;50.872;6.692;2022-10-03T12:39:51;4.70;;;2.20;;
3873;SDS011;1952;50.872;6.692;2022-10-03T12:42:32;3.57;;;2.33;;
3873;SDS011;1952;50.872;6.692;2022-10-03T12:45:08;3.87;;;2.43;;
3873;SDS011;1952;50.872;6.692;2022-10-03T12:47:52;2.90;;;2.60;;
3873;SDS011;1952;50.872;6.692;2022-10-03T12:50:30;2.73;;;1.80;;
3873;SDS011;1952;50.872;6.692;2022-10-03T12:53:20;2.80;;;1.73;;
3873;SDS011;1952;50.872;6.692;2022-10-03T12:56:06;2.13;;;1.90;;
3873;SDS011;1952;50.872;6.692;2022-10-03T12:58:47;3.83;;;1.80;;
3873;SDS011;1952;50.872;6.692;2022-10-03T13:02:02;4.33;;;2.30;;
3873;SDS011;1952;50.872;6.692;2022-10-03T13:05:31;4.90;;;2.20;;
3873;SDS011;1952;50.872;6.692;2022-10-03T13:08:43;3.77;;;2.50;;
3873;SDS011;1952;50.872;6.692;2022-10-03T13:11:54;4.13;;;1.90;;
3873;SDS011;1952;50.872;6.692;2022-10-03T13:14:29;5.80;;;1.80;;
3873;SDS011;1952;50.872;6.692;2022-10-03T13:17:17;3.50;;;2.13;;
3873;SDS011;1952;50.872;6.692;2022-10-03T13:20:14;3.67;;;2.23;;
3873;SDS011;1952;50.872;6.692;2022-10-03T13:23:03;2.77;;;2.10;;
3873;SDS011;1952;50.872;6.692;2022-10-03T13:26:06;4.23;;;1.90;;
3873;SDS011;1952;50.872;6.692;2022-10-03T13:38:19;4.70;;;2.00;;
3873;SDS011;1952;50.872;6.692;2022-10-03T13:40:54;5.07;;;1.77;;
3873;SDS011;1952;50.872;6.692;2022-10-03T13:43:55;2.77;;;2.27;;
3873;SDS011;1952;50.872;6.692;2022-10-03T13:46:41;2.37;;;1.63;;
3873;SDS011;1952;50.872;6.692;2022-10-03T13:49:21;3.20;;;1.93;;
3873;SDS011;1952;50.872;6.692;2022-10-03T13:52:10;4.13;;;2.10;;
3873;SDS011;1952;50.872;6.692;2022-10-03T13:55:08;1.87;;;1.70;;
3873;SDS011;1952;50.872;6.692;2022-10-03T13:58:20;5.33;;;1.83;;
3873;SDS011;1952;50.872;6.692;2022-10-03T14:01:03;2.93;;;1.90;;
3873;SDS011;1952;50.872;6.692;2022-10-03T14:04:08;2.23;;;2.03;;
3873;SDS011;1952;50.872;6.692;2022-10-03T14:07:07;3.20;;;1.60;;
3873;SDS011;1952;50.872;6.692;2022-10-03T14:35:28;4.80;;;2.20;;
3873;SDS011;1952;50.872;6.692;2022-10-03T14:38:02;2.57;;;1.70;;
3873;SDS011;1952;50.872;6.692;2022-10-03T14:41:01;5.47;;;2.23;;
3873;SDS011;1952;50.872;6.692;2022-10-03T14:43:37;2.07;;;1.87;;
3873;SDS011;1952;50.872;6.692;2022-10-03T14:46:22;2.00;;;1.80;;
3873;SDS011;1952;50.872;6.692;2022-10-03T14:48:56;2.40;;;2.00;;
3873;SDS011;1952;50.872;6.692;2022-10-03T14:51:48;3.07;;;1.73;;
3873;SDS011;1952;50.872;6.692;2022-10-03T14:54:21;2.87;;;1.93;;
3873;SDS011;1952;50.872;6.692;2022-10-03T14:57:12;5.37;;;2.27;;
3873;SDS011;1952;50.872;6.692;2022-10-03T15:00:21;5.50;;;2.30;;
3873;SDS011;1952;50.872;6.692;2022-10-03T15:03:21;3.27;;;1.60;;
3873;SDS011;1952;50.872;6.692;2022-10-03T15:05:59;2.40;;;1.87;;
3873;SDS011;1952;50.872;6.692;2022-10-03T15:17:28;2.50;;;2.23;;
3873;SDS011;1952;50.872;6.692;2022-10-03T15:20:00;3.23;;;2.23;;
3873;SDS011;1952;50.872;6.692;2022-10-03T15:22:45;4.23;;;2.30;;
3873;SDS011;1952;50.872;6.692;2022-10-03T15:25:42;4.93;;;2.07;;
3873;SDS011;1952;50.872;6.692;2022-10-03T15:28:25;3.13;;;2.00;;
3873;SDS011;1952;50.872;6.692;2022-10-03T15:31:26;2.30;;;1.50;;
3873;SDS011;1952;50.872;6.692;2022-10-03T15:37:24;8.47;;;2.60;;
3873;SDS011;1952;50.872;6.692;2022-10-03T15:40:02;3.43;;;2.17;;
3873;SDS011;1952;50.872;6.692;2022-10-03T15:43:03;4.93;;;2.37;;
3873;SDS011;1952;50.872;6.692;2022-10-03T15:46:02;3.80;;;2.27;;
3873;SDS011;1952;50.872;6.692;2022-10-03T15:48:35;10.17;;;2.40;;
3873;SDS011;1952;50.872;6.692;2022-10-03T15:51:17;5.10;;;2.20;;
3873;SDS011;1952;50.872;6.692;2022-10-03T15:53:52;4.73;;;2.50;;
3873;SDS011;1952;50.872;6.692;2022-10-03T15:56:52;4.90;;;2.20;;
3873;SDS011;1952;50.872;6.692;2022-10-03T15:59:29;3.93;;;2.13;;
3873;SDS011;1952;50.872;6.692;2022-10-03T16:02:29;2.30;;;1.77;;
3873;SDS011;1952;50.872;6.692;2022-10-03T16:05:28;3.70;;;2.30;;
3873;SDS011;1952;50.872;6.692;2022-10-03T16:08:07;3.07;;;2.20;;
3873;SDS011;1952;50.872;6.692;2022-10-03T16:11:11;4.37;;;3.43;;
3873;SDS011;1952;50.872;6.692;2022-10-03T16:14:14;2.30;;;2.10;;
3873;SDS011;1952;50.872;6.692;2022-10-03T16:17:14;3.60;;;2.10;;
3873;SDS011;1952;50.872;6.692;2022-10-03T16:20:05;3.17;;;1.80;;
3873;SDS011;1952;50.872;6.692;2022-10-03T16:22:46;5.30;;;2.10;;
3873;SDS011;1952;50.872;6.692;2022-10-03T16:25:25;5.20;;;1.87;;
3873;SDS011;1952;50.872;6.692;2022-10-03T16:28:11;5.47;;;2.67;;
3873;SDS011;1952;50.872;6.692;2022-10-03T16:30:45;3.27;;;2.30;;
3873;SDS011;1952;50.872;6.692;2022-10-03T16:33:25;4.27;;;2.30;;
3873;SDS011;1952;50.872;6.692;2022-10-03T16:36:09;3.00;;;2.17;;
3873;SDS011;1952;50.872;6.692;2022-10-03T16:38:58;6.17;;;3.80;;
3873;SDS011;1952;50.872;6.692;2022-10-03T16:41:31;4.20;;;2.00;;
3873;SDS011;1952;50.872;6.692;2022-10-03T16:44:21;3.87;;;2.60;;
3873;SDS011;1952;50.872;6.692;2022-10-03T16:46:53;6.00;;;2.97;;
3873;SDS011;1952;50.872;6.692;2022-10-03T16:49:39;3.73;;;2.83;;
3873;SDS011;1952;50.872;6.692;2022-10-03T16:52:29;8.87;;;4.70;;
3873;SDS011;1952;50.872;6.692;2022-10-03T16:54:59;6.60;;;5.30;;
3873;SDS011;1952;50.872;6.692;2022-10-03T16:57:37;8.40;;;6.00;;
3873;SDS011;1952;50.872;6.692;2022-10-03T17:00:40;9.40;;;6.00;;
3873;SDS011;1952;50.872;6.692;2022-10-03T17:03:20;9.63;;;7.30;;
3873;SDS011;1952;50.872;6.692;2022-10-03T17:06:05;7.00;;;5.20;;
3873;SDS011;1952;50.872;6.692;2022-10-03T17:08:41;7.90;;;5.90;;
3873;SDS011;1952;50.872;6.692;2022-10-03T17:11:14;20.17;;;13.00;;
3873;SDS011;1952;50.872;6.692;2022-10-03T17:16:53;13.73;;;10.80;;
3873;SDS011;1952;50.872;6.692;2022-10-03T17:19:37;13.60;;;12.07;;
3873;SDS011;1952;50.872;6.692;2022-10-03T17:22:43;9.20;;;8.20;;
3873;SDS011;1952;50.872;6.692;2022-10-03T17:25:40;8.27;;;6.77;;
3873;SDS011;1952;50.872;6.692;2022-10-03T17:28:31;8.90;;;8.00;;
3873;SDS011;1952;50.872;6.692;2022-10-03T17:43:46;6.73;;;5.43;;
3873;SDS011;1952;50.872;6.692;2022-10-03T17:46:33;7.53;;;6.63;;
3873;SDS011;1952;50.872;6.692;2022-10-03T17:49:16;11.27;;;10.30;;
3873;SDS011;1952;50.872;6.692;2022-10-03T17:52:16;11.70;;;7.80;;
3873;SDS011;1952;50.872;6.692;2022-10-03T18:45:33;17.33;;;11.43;;
3873;SDS011;1952;50.872;6.692;2022-10-03T18:48:11;16.33;;;9.37;;
3873;SDS011;1952;50.872;6.692;2022-10-03T18:50:49;24.10;;;14.97;;
3873;SDS011;1952;50.872;6.692;2022-10-03T18:53:32;25.47;;;19.83;;
3873;SDS011;1952;50.872;6.692;2022-10-03T18:56:19;24.00;;;15.60;;
3873;SDS011;1952;50.872;6.692;2022-10-03T18:59:11;25.13;;;16.03;;
3873;SDS011;1952;50.872;6.692;2022-10-03T19:02:17;27.23;;;15.73;;
3873;SDS011;1952;50.872;6.692;2022-10-03T19:05:15;20.30;;;13.27;;
3873;SDS011;1952;50.872;6.692;2022-10-03T19:07:48;16.30;;;11.37;;
3873;SDS011;1952;50.872;6.692;2022-10-03T19:13:27;19.43;;;12.83;;
3873;SDS011;1952;50.872;6.692;2022-10-03T19:19:06;10.60;;;9.50;;
3873;SDS011;1952;50.872;6.692;2022-10-03T19:21:44;10.80;;;8.10;;
3873;SDS011;1952;50.872;6.692;2022-10-03T19:24:28;13.97;;;8.83;;
3873;SDS011;1952;50.872;6.692;2022-10-03T19:27:04;5.53;;;4.77;;
3873;SDS011;1952;50.872;6.692;2022-10-03T19:29:51;7.70;;;6.27;;
3873;SDS011;1952;50.872;6.692;2022-10-03T19:32:43;9.17;;;7.20;;
3873;SDS011;1952;50.872;6.692;2022-10-03T19:35:29;15.23;;;8.00;;
3873;SDS011;1952;50.872;6.692;2022-10-03T19:38:12;11.63;;;9.90;;
3873;SDS011;1952;50.872;6.692;2022-10-03T19:40:50;11.37;;;9.40;;
3873;SDS011;1952;50.872;6.692;2022-10-03T19:43:34;10.17;;;8.30;;
3873;SDS011;1952;50.872;6.692;2022-10-03T19:46:09;9.30;;;8.17;;
3873;SDS011;1952;50.872;6.692;2022-10-03T19:52:10;12.40;;;9.97;;
3873;SDS011;1952;50.872;6.692;2022-10-03T19:54:49;14.17;;;9.90;;
3873;SDS011;1952;50.872;6.692;2022-10-03T19:57:38;17.33;;;12.00;;
3873;SDS011;1952;50.872;6.692;2022-10-03T20:00:23;11.10;;;9.63;;
3873;SDS011;1952;50.872;6.692;2022-10-03T20:02:55;15.67;;;10.57;;
3873;SDS011;1952;50.872;6.692;2022-10-03T20:05:40;16.10;;;12.40;;
3873;SDS011;1952;50.872;6.692;2022-10-03T20:08:32;15.37;;;9.90;;
3873;SDS011;1952;50.872;6.692;2022-10-03T20:11:21;13.37;;;9.57;;
3873;SDS011;1952;50.872;6.692;2022-10-03T20:14:21;8.63;;;7.77;;
3873;SDS011;1952;50.872;6.692;2022-10-03T20:17:03;8.13;;;7.17;;
3873;SDS011;1952;50.872;6.692;2022-10-03T20:19:45;10.93;;;7.00;;
3873;SDS011;1952;50.872;6.692;2022-10-03T20:22:20;7.03;;;6.07;;
3873;SDS011;1952;50.872;6.692;2022-10-03T20:25:00;10.37;;;7.47;;
3873;SDS011;1952;50.872;6.692;2022-10-03T20:27:31;8.63;;;6.27;;
3873;SDS011;1952;50.872;6.692;2022-10-03T20:30:18;9.40;;;5.60;;
3873;SDS011;1952;50.872;6.692;2022-10-03T20:32:53;7.20;;;6.60;;
3873;SDS011;1952;50.872;6.692;2022-10-03T20:35:24;8.57;;;7.70;;
3873;SDS011;1952;50.872;6.692;2022-10-03T20:37:56;13.63;;;7.70;;
3873;SDS011;1952;50.872;6.692;2022-10-03T20:41:01;7.13;;;5.73;;
3873;SDS011;1952;50.872;6.692;2022-10-03T20:43:37;6.70;;;5.60;;
3873;SDS011;1952;50.872;6.692;2022-10-03T20:46:13;8.63;;;6.37;;
3873;SDS011;1952;50.872;6.692;2022-10-03T20:48:55;7.70;;;5.93;;
3873;SDS011;1952;50.872;6.692;2022-10-03T20:51:42;6.80;;;6.10;;
3873;SDS011;1952;50.872;6.692;2022-10-03T20:54:12;7.63;;;6.67;;
3873;SDS011;1952;50.872;6.692;2022-10-03T20:56:54;7.10;;;6.30;;
3873;SDS011;1952;50.872;6.692;2022-10-03T20:59:25;13.80;;;6.00;;
3873;SDS011;1952;50.872;6.692;2022-10-03T21:02:02;8.10;;;5.10;;
3873;SDS011;1952;50.872;6.692;2022-10-03T21:04:37;8.07;;;7.20;;
3873;SDS011;1952;50.872;6.692;2022-10-03T21:07:16;8.70;;;7.30;;
3873;SDS011;1952;50.872;6.692;2022-10-03T21:09:55;9.80;;;6.57;;
3873;SDS011;1952;50.872;6.692;2022-10-03T21:12:27;7.40;;;6.70;;
3873;SDS011;1952;50.872;6.692;2022-10-03T21:15:03;8.90;;;6.80;;
3873;SDS011;1952;50.872;6.692;2022-10-03T21:17:40;7.70;;;7.00;;
3873;SDS011;1952;50.872;6.692;2022-10-03T21:20:09;9.63;;;7.33;;
3873;SDS011;1952;50.872;6.692;2022-10-03T21:22:47;9.70;;;7.30;;
3873;SDS011;1952;50.872;6.692;2022-10-03T21:25:18;12.53;;;7.40;;
3873;SDS011;1952;50.872;6.692;2022-10-03T21:27:52;7.60;;;6.80;;
3873;SDS011;1952;50.872;6.692;2022-10-03T21:30:23;6.00;;;5.40;;
3873;SDS011;1952;50.872;6.692;2022-10-03T21:32:58;7.57;;;6.77;;
3873;SDS011;1952;50.872;6.692;2022-10-03T21:35:32;9.43;;;7.10;;
3873;SDS011;1952;50.872;6.692;2022-10-03T21:38:04;15.00;;;9.90;;
3873;SDS011;1952;50.872;6.692;2022-10-03T21:40:53;8.67;;;7.50;;
3873;SDS011;1952;50.872;6.692;2022-10-03T21:43:32;9.70;;;8.53;;
3873;SDS011;1952;50.872;6.692;2022-10-03T21:46:08;8.57;;;7.50;;
3873;SDS011;1952;50.872;6.692;2022-10-03T21:48:41;8.17;;;6.43;;
3873;SDS011;1952;50.872;6.692;2022-10-03T21:51:20;13.00;;;7.90;;
3873;SDS011;1952;50.872;6.692;2022-10-03T21:53:59;9.63;;;8.73;;
3873;SDS011;1952;50.872;6.692;2022-10-03T21:56:40;11.10;;;9.20;;
3873;SDS011;1952;50.872;6.692;2022-10-03T21:59:27;13.27;;;9.90;;
3873;SDS011;1952;50.872;6.692;2022-10-03T22:01:59;11.97;;;7.80;;
3873;SDS011;1952;50.872;6.692;2022-10-03T22:04:33;9.77;;;7.67;;
3873;SDS011;1952;50.872;6.692;2022-10-03T22:07:05;10.83;;;8.53;;
3873;SDS011;1952;50.872;6.692;2022-10-03T22:09:44;8.17;;;7.37;;
3873;SDS011;1952;50.872;6.692;2022-10-03T22:12:16;8.53;;;7.63;;
3873;SDS011;1952;50.872;6.692;2022-10-03T22:14:54;12.03;;;8.80;;
3873;SDS011;1952;50.872;6.692;2022-10-03T22:17:28;15.17;;;10.30;;
3873;SDS011;1952;50.872;6.692;2022-10-03T22:20:04;12.37;;;8.80;;
3873;SDS011;1952;50.872;6.692;2022-10-03T22:22:40;13.93;;;9.80;;
3873;SDS011;1952;50.872;6.692;2022-10-03T22:25:31;12.67;;;8.57;;
3873;SDS011;1952;50.872;6.692;2022-10-03T22:28:11;8.63;;;7.77;;
3873;SDS011;1952;50.872;6.692;2022-10-03T22:30:50;7.87;;;6.80;;
3873;SDS011;1952;50.872;6.692;2022-10-03T22:33:38;8.43;;;7.60;;
3873;SDS011;1952;50.872;6.692;2022-10-03T22:36:09;11.30;;;6.93;;
3873;SDS011;1952;50.872;6.692;2022-10-03T22:38:39;8.30;;;7.50;;
3873;SDS011;1952;50.872;6.692;2022-10-03T22:41:14;7.00;;;6.40;;
3873;SDS011;1952;50.872;6.692;2022-10-03T22:43:45;8.90;;;6.70;;
3873;SDS011;1952;50.872;6.692;2022-10-03T22:46:16;6.60;;;6.00;;
3873;SDS011;1952;50.872;6.692;2022-10-03T22:48:48;10.47;;;7.33;;
3873;SDS011;1952;50.872;6.692;2022-10-03T22:51:36;7.17;;;6.47;;
3873;SDS011;1952;50.872;6.692;2022-10-03T22:54:11;7.63;;;6.90;;
3873;SDS011;1952;50.872;6.692;2022-10-03T22:56:47;6.97;;;6.37;;
3873;SDS011;1952;50.872;6.692;2022-10-03T22:59:22;8.00;;;7.17;;
3873;SDS011;1952;50.872;6.692;2022-10-03T23:02:03;8.20;;;7.40;;
3873;SDS011;1952;50.872;6.692;2022-10-03T23:04:33;7.10;;;6.43;;
3873;SDS011;1952;50.872;6.692;2022-10-03T23:10:14;6.97;;;6.17;;
3873;SDS011;1952;50.872;6.692;2022-10-03T23:12:48;10.50;;;8.17;;
3873;SDS011;1952;50.872;6.692;2022-10-03T23:15:25;9.20;;;8.00;;
3873;SDS011;1952;50.872;6.692;2022-10-03T23:24:45;10.43;;;6.43;;
3873;SDS011;1952;50.872;6.692;2022-10-03T23:33:48;9.23;;;7.20;;
3873;SDS011;1952;50.872;6.692;2022-10-03T23:36:26;8.63;;;7.70;;
3873;SDS011;1952;50.872;6.692;2022-10-03T23:38:57;7.80;;;7.00;;
3873;SDS011;1952;50.872;6.692;2022-10-03T23:50:50;13.00;;;7.60;;
3873;SDS011;1952;50.872;6.692;2022-10-03T23:53:30;8.00;;;7.10;;
